createdAt,value
2023-03-18T00:00:21.082Z,7.97
2023-03-18T00:03:24.254Z,6.72
2023-03-18T00:06:15.513Z,7.13
2023-03-18T00:08:58.441Z,6.97
2023-03-18T00:11:41.956Z,7.07
2023-03-18T00:14:25.619Z,7.70
2023-03-18T00:17:08.151Z,7.95
2023-03-18T00:19:50.665Z,7.03
2023-03-18T00:22:34.744Z,6.82
2023-03-18T00:25:17.507Z,6.78
2023-03-18T00:27:59.760Z,7.28
2023-03-18T00:30:42.727Z,7.45
2023-03-18T00:33:24.957Z,7.43
2023-03-18T00:36:10.282Z,7.03
2023-03-18T00:38:57.676Z,6.95
2023-03-18T00:41:40.349Z,6.10
2023-03-18T00:44:23.259Z,6.75
2023-03-18T00:47:07.821Z,6.90
2023-03-18T00:49:50.050Z,6.30
2023-03-18T00:52:32.519Z,6.38
2023-03-18T00:55:15.784Z,7.18
2023-03-18T00:57:58.308Z,7.22
2023-03-18T01:00:41.372Z,6.85
2023-03-18T01:03:25.882Z,6.85
2023-03-18T01:06:10.297Z,6.40
2023-03-18T01:08:53.764Z,6.75
2023-03-18T01:11:36.275Z,7.13
2023-03-18T01:14:19.133Z,6.93
2023-03-18T01:17:02.280Z,6.68
2023-03-18T01:19:44.826Z,6.32
2023-03-18T01:22:27.063Z,6.93
2023-03-18T01:25:11.739Z,6.43
2023-03-18T01:27:54.796Z,6.72
2023-03-18T01:30:38.292Z,6.80
2023-03-18T01:33:22.409Z,6.22
2023-03-18T01:36:05.510Z,6.63
2023-03-18T01:38:48.568Z,6.88
2023-03-18T01:41:31.555Z,6.13
2023-03-18T01:44:22.968Z,6.30
2023-03-18T01:47:08.777Z,6.78
2023-03-18T01:49:53.140Z,6.20
2023-03-18T01:52:37.196Z,6.45
2023-03-18T01:55:23.894Z,5.72
2023-03-18T01:58:18.908Z,6.63
2023-03-18T02:01:07.095Z,6.30
2023-03-18T02:03:51.431Z,6.13
2023-03-18T02:06:33.862Z,6.53
2023-03-18T02:09:17.218Z,6.65
2023-03-18T02:12:03.854Z,6.30
2023-03-18T02:14:46.751Z,6.23
2023-03-18T02:17:33.280Z,5.88
2023-03-18T02:20:45.072Z,6.22
2023-03-18T02:23:58.005Z,6.40
2023-03-18T02:26:50.056Z,5.80
2023-03-18T02:29:39.773Z,5.93
2023-03-18T02:32:32.589Z,5.85
2023-03-18T02:35:17.581Z,6.03
2023-03-18T02:38:00.266Z,6.20
2023-03-18T02:40:43.022Z,6.35
2023-03-18T02:43:33.850Z,6.00
2023-03-18T02:46:38.395Z,5.28
2023-03-18T02:49:23.010Z,5.97
2023-03-18T02:52:06.976Z,5.60
2023-03-18T02:54:49.409Z,6.82
2023-03-18T02:57:31.942Z,6.22
2023-03-18T03:00:14.836Z,6.32
2023-03-18T03:02:57.217Z,6.00
2023-03-18T03:05:39.851Z,5.75
2023-03-18T03:08:23.112Z,5.90
2023-03-18T03:11:06.596Z,6.15
2023-03-18T03:13:51.499Z,5.85
2023-03-18T03:16:35.149Z,6.45
2023-03-18T03:19:17.970Z,5.95
2023-03-18T03:22:00.870Z,6.38
2023-03-18T03:24:43.811Z,6.15
2023-03-18T03:27:26.467Z,5.68
2023-03-18T03:30:12.394Z,6.10
2023-03-18T03:32:56.033Z,6.13
2023-03-18T03:35:39.552Z,6.60
2023-03-18T03:38:23.132Z,6.03
2023-03-18T03:41:05.721Z,5.90
2023-03-18T03:43:48.843Z,6.13
2023-03-18T03:46:31.347Z,6.28
2023-03-18T03:49:14.974Z,6.35
2023-03-18T03:51:57.256Z,6.18
2023-03-18T03:54:41.932Z,5.82
2023-03-18T03:57:24.482Z,6.55
2023-03-18T04:00:14.895Z,6.07
2023-03-18T04:02:59.817Z,6.05
2023-03-18T04:05:43.311Z,6.13
2023-03-18T04:08:26.218Z,6.03
2023-03-18T04:11:08.662Z,6.18
2023-03-18T04:13:50.959Z,6.32
2023-03-18T04:16:34.128Z,6.60
2023-03-18T04:19:17.749Z,6.00
2023-03-18T04:22:00.387Z,5.95
2023-03-18T04:24:42.910Z,6.35
2023-03-18T04:27:26.786Z,6.38
2023-03-18T04:30:10.733Z,6.20
2023-03-18T04:33:05.500Z,8.43
2023-03-18T04:35:48.819Z,6.60
2023-03-18T04:38:34.318Z,6.10
2023-03-18T04:41:16.618Z,5.97
2023-03-18T04:43:59.079Z,5.97
2023-03-18T04:46:50.089Z,6.22
2023-03-18T04:49:32.690Z,6.40
2023-03-18T04:52:18.629Z,6.10
2023-03-18T04:55:01.741Z,6.07
2023-03-18T04:57:45.011Z,5.90
2023-03-18T05:00:30.190Z,6.50
2023-03-18T05:03:26.209Z,6.63
2023-03-18T05:06:15.579Z,6.70
2023-03-18T05:09:09.721Z,7.70
2023-03-18T05:11:52.253Z,7.53
2023-03-18T05:14:40.253Z,8.02
2023-03-18T05:17:22.853Z,7.22
2023-03-18T05:20:14.965Z,6.47
2023-03-18T05:23:02.036Z,7.57
2023-03-18T05:25:55.745Z,8.18
2023-03-18T05:28:41.127Z,6.68
2023-03-18T05:31:32.040Z,6.68
2023-03-18T05:34:16.266Z,6.75
2023-03-18T05:37:00.044Z,6.72
2023-03-18T05:39:44.808Z,6.90
2023-03-18T05:42:30.579Z,7.45
2023-03-18T05:45:13.494Z,6.65
2023-03-18T05:48:05.250Z,7.65
2023-03-18T05:50:53.588Z,7.20
2023-03-18T05:53:41.200Z,7.38
2023-03-18T05:56:38.140Z,7.35
2023-03-18T05:59:23.925Z,6.72
2023-03-18T06:02:11.817Z,6.50
2023-03-18T06:04:54.201Z,6.15
2023-03-18T06:07:37.186Z,6.47
2023-03-18T06:10:20.249Z,6.82
2023-03-18T06:13:03.709Z,6.75
2023-03-18T06:15:48.739Z,7.28
2023-03-18T06:18:34.040Z,7.68
2023-03-18T06:21:19.797Z,7.68
2023-03-18T06:24:03.699Z,6.75
2023-03-18T06:26:48.690Z,6.93
2023-03-18T06:29:31.838Z,6.30
2023-03-18T06:32:21.961Z,6.40
2023-03-18T06:35:05.393Z,6.30
2023-03-18T06:37:48.637Z,7.22
2023-03-18T06:40:31.730Z,6.57
2023-03-18T06:43:15.664Z,6.53
2023-03-18T06:46:00.122Z,6.43
2023-03-18T06:48:42.631Z,6.40
2023-03-18T06:51:27.360Z,6.22
2023-03-18T06:54:10.410Z,6.82
2023-03-18T06:56:53.070Z,7.10
2023-03-18T06:59:35.827Z,7.47
2023-03-18T07:02:23.625Z,8.15
2023-03-18T07:05:07.826Z,7.43
2023-03-18T07:07:51.691Z,7.25
2023-03-18T07:10:34.883Z,6.30
2023-03-18T07:13:23.945Z,6.97
2023-03-18T07:16:06.771Z,6.93
2023-03-18T07:18:49.448Z,7.93
2023-03-18T07:21:32.236Z,8.07
2023-03-18T07:24:15.195Z,7.72
2023-03-18T07:26:57.736Z,7.45
2023-03-18T07:29:40.566Z,7.75
2023-03-18T07:32:23.961Z,7.05
2023-03-18T07:35:10.770Z,7.07
2023-03-18T07:37:53.065Z,8.30
2023-03-18T07:40:36.123Z,8.77
2023-03-18T07:43:19.117Z,7.65
2023-03-18T07:46:01.576Z,8.18
2023-03-18T07:48:44.096Z,8.45
2023-03-18T07:51:27.402Z,8.52
2023-03-18T07:54:10.083Z,8.82
2023-03-18T07:56:53.531Z,8.05
2023-03-18T07:59:37.616Z,7.47
2023-03-18T08:02:21.802Z,7.65
2023-03-18T08:05:07.048Z,7.43
2023-03-18T08:07:49.682Z,7.17
2023-03-18T08:10:32.709Z,7.70
2023-03-18T08:13:15.391Z,7.53
2023-03-18T08:15:57.613Z,8.20
2023-03-18T08:18:40.386Z,8.30
2023-03-18T08:21:22.628Z,8.70
2023-03-18T08:24:05.657Z,8.40
2023-03-18T08:26:48.410Z,8.15
2023-03-18T08:29:30.887Z,8.07
2023-03-18T08:32:13.635Z,7.72
2023-03-18T08:34:56.755Z,9.05
2023-03-18T08:37:39.398Z,7.38
2023-03-18T08:40:21.951Z,7.22
2023-03-18T08:43:04.497Z,8.90
2023-03-18T08:45:55.278Z,8.65
2023-03-18T08:48:37.485Z,8.73
2023-03-18T08:51:22.226Z,7.68
2023-03-18T08:54:04.627Z,8.45
2023-03-18T08:56:47.612Z,9.48
2023-03-18T08:59:29.972Z,9.63
2023-03-18T09:02:18.449Z,8.00
2023-03-18T09:05:00.759Z,7.60
2023-03-18T09:07:43.791Z,8.15
2023-03-18T09:10:27.626Z,8.35
2023-03-18T09:13:10.120Z,8.00
2023-03-18T09:15:52.388Z,8.10
2023-03-18T09:18:35.447Z,9.13
2023-03-18T09:21:18.463Z,7.80
2023-03-18T09:24:00.943Z,7.30
2023-03-18T09:26:43.833Z,7.50
2023-03-18T09:29:27.647Z,8.10
2023-03-18T09:32:10.000Z,8.57
2023-03-18T09:34:53.686Z,7.65
2023-03-18T09:37:37.186Z,8.50
2023-03-18T09:40:29.516Z,9.35
2023-03-18T09:43:20.675Z,8.10
2023-03-18T09:46:12.098Z,6.85
2023-03-18T09:49:26.220Z,7.70
2023-03-18T09:52:20.898Z,8.48
2023-03-18T09:55:12.765Z,7.07
2023-03-18T09:58:03.145Z,8.38
2023-03-18T10:00:47.074Z,7.90
2023-03-18T10:03:33.367Z,8.70
2023-03-18T10:06:18.189Z,7.35
2023-03-18T10:09:31.354Z,7.38
2023-03-18T10:12:35.505Z,7.18
2023-03-18T10:15:21.561Z,6.88
2023-03-18T10:18:17.600Z,7.63
2023-03-18T10:21:07.125Z,6.63
2023-03-18T10:23:55.497Z,6.47
2023-03-18T10:27:00.256Z,5.40
2023-03-18T10:29:46.662Z,5.60
2023-03-18T10:32:50.306Z,6.00
2023-03-18T10:35:43.105Z,15.57
2023-03-18T10:38:34.293Z,4.88
2023-03-18T10:41:38.052Z,5.10
2023-03-18T10:44:27.274Z,6.65
2023-03-18T10:47:19.812Z,4.82
2023-03-18T10:50:13.525Z,5.13
2023-03-18T10:53:04.809Z,5.50
2023-03-18T10:56:09.367Z,5.85
2023-03-18T10:58:53.065Z,6.65
2023-03-18T11:01:37.461Z,8.20
2023-03-18T11:04:21.741Z,18.05
2023-03-18T11:07:07.656Z,5.80
2023-03-18T11:09:49.956Z,5.78
2023-03-18T11:12:32.631Z,5.78
2023-03-18T11:15:20.488Z,7.10
2023-03-18T11:18:04.308Z,6.32
2023-03-18T11:20:49.374Z,7.18
2023-03-18T11:23:49.558Z,8.45
2023-03-18T11:26:31.757Z,6.60
2023-03-18T11:29:19.611Z,8.68
2023-03-18T11:32:02.366Z,9.90
2023-03-18T11:34:57.790Z,8.93
2023-03-18T11:37:41.719Z,7.78
2023-03-18T11:40:28.162Z,7.28
2023-03-18T11:46:05.628Z,20.33
2023-03-18T11:48:48.343Z,6.90
2023-03-18T11:52:01.331Z,7.10
2023-03-18T11:55:05.108Z,6.63
2023-03-18T11:58:15.788Z,6.93
2023-03-18T12:01:06.816Z,6.70
2023-03-18T12:03:52.620Z,9.05
2023-03-18T12:07:08.885Z,8.43
2023-03-18T12:10:08.717Z,8.77
2023-03-18T12:13:00.093Z,8.57
2023-03-18T12:16:22.359Z,7.60
2023-03-18T12:19:25.816Z,7.95
2023-03-18T12:22:37.303Z,7.80
2023-03-18T12:25:44.319Z,8.40
2023-03-18T12:28:42.633Z,7.68
2023-03-18T12:31:40.733Z,7.55
2023-03-18T12:34:42.846Z,7.90
2023-03-18T12:37:34.802Z,10.10
2023-03-18T12:40:45.487Z,10.20
2023-03-18T12:43:49.733Z,7.90
2023-03-18T12:46:36.108Z,12.43
2023-03-18T12:49:31.301Z,11.65
2023-03-18T12:52:26.062Z,7.50
2023-03-18T12:55:15.791Z,6.70
2023-03-18T12:58:01.528Z,7.15
2023-03-18T13:00:50.227Z,7.70
2023-03-18T13:03:46.068Z,6.70
2023-03-18T13:06:39.430Z,6.60
2023-03-18T13:09:44.641Z,7.00
2023-03-18T13:12:37.400Z,6.33
2023-03-18T13:15:23.009Z,7.78
2023-03-18T13:18:23.789Z,8.90
2023-03-18T13:21:07.858Z,8.23
2023-03-18T13:24:11.772Z,8.18
2023-03-18T13:27:04.962Z,8.23
2023-03-18T13:30:15.918Z,7.40
2023-03-18T13:33:36.059Z,7.80
2023-03-18T13:36:58.505Z,7.25
2023-03-18T13:39:59.671Z,6.95
2023-03-18T13:42:42.980Z,6.80
2023-03-18T13:45:38.067Z,7.25
2023-03-18T13:48:36.038Z,7.15
2023-03-18T13:51:40.440Z,7.30
2023-03-18T13:54:23.054Z,6.90
2023-03-18T13:57:39.048Z,7.25
2023-03-18T14:00:36.131Z,6.60
2023-03-18T14:03:52.161Z,8.80
2023-03-18T14:06:46.700Z,9.57
2023-03-18T14:09:29.362Z,10.60
2023-03-18T14:12:35.220Z,10.70
2023-03-18T14:15:44.492Z,8.38
2023-03-18T14:18:28.706Z,6.25
2023-03-18T14:21:32.847Z,6.15
2023-03-18T14:24:21.701Z,6.30
2023-03-18T14:27:04.437Z,7.72
2023-03-18T14:29:50.829Z,7.32
2023-03-18T14:32:33.362Z,7.50
2023-03-18T14:35:18.723Z,7.15
2023-03-18T14:38:09.954Z,9.23
2023-03-18T14:40:56.217Z,9.27
2023-03-18T14:43:44.781Z,16.80
2023-03-18T14:46:33.071Z,16.30
2023-03-18T14:49:37.285Z,12.18
2023-03-18T14:52:36.992Z,34.30
2023-03-18T14:55:31.315Z,14.90
2023-03-18T14:58:21.768Z,13.13
2023-03-18T15:01:09.676Z,17.13
2023-03-18T15:03:55.305Z,13.95
2023-03-18T15:06:40.907Z,10.10
2023-03-18T15:09:28.676Z,9.80
2023-03-18T15:12:19.624Z,8.90
2023-03-18T15:15:02.229Z,14.88
2023-03-18T15:17:52.553Z,19.23
2023-03-18T15:20:36.458Z,15.18
2023-03-18T15:23:30.990Z,14.20
2023-03-18T15:26:23.955Z,10.57
2023-03-18T15:29:24.245Z,12.75
2023-03-18T15:32:13.718Z,21.48
2023-03-18T15:35:06.747Z,19.38
2023-03-18T15:38:03.740Z,17.23
2023-03-18T15:40:49.264Z,29.75
2023-03-18T15:43:31.714Z,21.90
2023-03-18T15:46:24.437Z,22.13
2023-03-18T15:49:10.224Z,17.88
2023-03-18T15:52:02.253Z,20.05
2023-03-18T15:54:48.477Z,20.67
2023-03-18T15:57:43.610Z,31.25
2023-03-18T16:00:26.606Z,26.90
2023-03-18T16:03:23.538Z,21.85
2023-03-18T16:06:06.167Z,13.63
2023-03-18T16:08:50.051Z,35.20
2023-03-18T16:11:32.381Z,21.25
2023-03-18T16:14:28.788Z,13.00
2023-03-18T16:17:13.074Z,16.85
2023-03-18T16:19:57.311Z,16.17
2023-03-18T16:22:39.518Z,13.82
2023-03-18T16:25:23.936Z,13.60
2023-03-18T16:28:06.257Z,15.52
2023-03-18T16:30:49.756Z,16.25
2023-03-18T16:33:33.373Z,20.55
2023-03-18T16:36:28.141Z,20.00
2023-03-18T16:39:29.220Z,19.00
2023-03-18T16:42:11.884Z,19.70
2023-03-18T16:44:54.584Z,23.70
2023-03-18T16:47:37.295Z,26.27
2023-03-18T16:50:24.597Z,24.95
2023-03-18T16:53:13.940Z,21.58
2023-03-18T16:55:59.883Z,18.17
2023-03-18T17:01:26.655Z,15.95
2023-03-18T17:04:36.701Z,16.30
2023-03-18T17:07:19.318Z,16.17
2023-03-18T17:10:01.926Z,14.68
2023-03-18T17:12:51.313Z,14.23
2023-03-18T17:15:37.073Z,16.77
2023-03-18T17:18:24.192Z,16.63
2023-03-18T17:21:06.659Z,16.77
2023-03-18T17:23:49.065Z,16.45
2023-03-18T17:26:44.002Z,17.55
2023-03-18T17:29:29.545Z,16.55
2023-03-18T17:32:12.386Z,18.73
2023-03-18T17:34:55.161Z,21.05
2023-03-18T17:37:38.441Z,23.65
2023-03-18T17:40:23.092Z,23.50
2023-03-18T17:43:06.088Z,21.70
2023-03-18T17:45:49.115Z,20.45
2023-03-18T17:48:34.209Z,19.17
2023-03-18T17:51:19.233Z,17.83
2023-03-18T17:54:05.916Z,18.38
2023-03-18T17:59:33.314Z,26.48
2023-03-18T18:02:18.226Z,24.40
2023-03-18T18:05:01.658Z,22.83
2023-03-18T18:07:45.600Z,22.33
2023-03-18T18:10:28.517Z,21.67
2023-03-18T18:13:19.900Z,21.30
2023-03-18T18:16:02.921Z,20.70
2023-03-18T18:18:48.296Z,21.13
2023-03-18T18:21:32.414Z,20.65
2023-03-18T18:24:33.433Z,20.73
2023-03-18T18:27:16.436Z,21.77
2023-03-18T18:29:59.046Z,20.70
2023-03-18T18:32:42.026Z,21.50
2023-03-18T18:35:25.701Z,22.23
2023-03-18T18:38:09.675Z,24.30
2023-03-18T18:40:53.728Z,24.90
2023-03-18T18:43:36.291Z,27.77
2023-03-18T18:46:19.010Z,29.58
2023-03-18T18:49:02.450Z,28.40
2023-03-18T18:51:44.772Z,29.50
2023-03-18T18:54:28.514Z,28.75
2023-03-18T18:57:29.244Z,27.10
2023-03-18T19:00:23.701Z,28.33
2023-03-18T19:03:11.100Z,26.48
2023-03-18T19:05:55.453Z,28.85
2023-03-18T19:08:38.465Z,30.73
2023-03-18T19:11:21.165Z,29.48
2023-03-18T19:14:24.924Z,28.55
2023-03-18T19:17:15.480Z,26.88
2023-03-18T19:19:58.506Z,25.65
2023-03-18T19:22:41.382Z,24.70
2023-03-18T19:25:25.831Z,23.58
2023-03-18T19:28:14.735Z,23.50
2023-03-18T19:30:57.444Z,23.23
2023-03-18T19:33:41.522Z,24.15
2023-03-18T19:36:41.144Z,24.17
2023-03-18T19:39:24.863Z,24.45
2023-03-18T19:42:09.313Z,24.15
2023-03-18T19:44:52.288Z,21.52
2023-03-18T19:47:34.727Z,23.63
2023-03-18T19:50:21.953Z,22.13
2023-03-18T19:53:14.084Z,23.38
2023-03-18T19:55:56.998Z,27.48
2023-03-18T19:58:39.559Z,26.85
2023-03-18T20:01:22.633Z,27.42
2023-03-18T20:04:13.709Z,24.83
2023-03-18T20:06:57.091Z,24.77
2023-03-18T20:09:40.001Z,24.52
2023-03-18T20:12:43.729Z,24.65
2023-03-18T20:15:27.196Z,24.92
2023-03-18T20:18:17.519Z,22.73
2023-03-18T20:20:59.975Z,24.50
2023-03-18T20:23:42.752Z,24.45
2023-03-18T20:26:25.135Z,27.33
2023-03-18T20:29:26.261Z,24.80
2023-03-18T20:32:08.564Z,25.33
2023-03-18T20:34:51.309Z,25.85
2023-03-18T20:37:35.036Z,22.73
2023-03-18T20:40:23.852Z,21.20
2023-03-18T20:43:06.072Z,20.27
2023-03-18T20:45:51.564Z,19.67
2023-03-18T20:48:34.576Z,17.50
2023-03-18T20:51:27.761Z,16.90
2023-03-18T20:54:25.526Z,16.30
2023-03-18T20:57:12.896Z,17.33
2023-03-18T20:59:56.111Z,18.60
2023-03-18T21:02:38.978Z,19.40
2023-03-18T21:05:22.086Z,23.13
2023-03-18T21:08:05.138Z,25.58
2023-03-18T21:10:47.644Z,29.38
2023-03-18T21:13:36.355Z,32.25
2023-03-18T21:16:21.228Z,30.80
2023-03-18T21:19:04.155Z,27.70
2023-03-18T21:21:47.093Z,27.67
2023-03-18T21:24:31.763Z,26.42
2023-03-18T21:27:28.182Z,22.77
2023-03-18T21:30:12.177Z,22.00
2023-03-18T21:32:55.085Z,20.95
2023-03-18T21:35:39.295Z,21.30
2023-03-18T21:38:22.078Z,21.88
2023-03-18T21:41:12.041Z,21.83
2023-03-18T21:43:55.032Z,23.20
2023-03-18T21:46:38.006Z,25.70
2023-03-18T21:49:20.487Z,21.38
2023-03-18T21:52:04.012Z,23.23
2023-03-18T21:54:47.251Z,23.98
2023-03-18T21:57:30.961Z,23.55
2023-03-18T22:00:20.229Z,25.50
2023-03-18T22:03:03.031Z,24.92
2023-03-18T22:05:48.887Z,26.67
2023-03-18T22:08:31.862Z,25.00
2023-03-18T22:11:19.474Z,21.80
2023-03-18T22:14:02.059Z,20.23
2023-03-18T22:16:44.412Z,20.30
2023-03-18T22:19:27.471Z,18.45
2023-03-18T22:22:14.612Z,19.60
2023-03-18T22:24:57.335Z,19.60
2023-03-18T22:27:39.716Z,18.60
2023-03-18T22:30:22.342Z,18.73
2023-03-18T22:33:05.730Z,19.10
2023-03-18T22:35:48.534Z,19.10
2023-03-18T22:38:31.863Z,18.10
2023-03-18T22:41:30.293Z,19.23
2023-03-18T22:44:22.979Z,21.23
2023-03-18T22:47:05.912Z,18.48
2023-03-18T22:49:48.500Z,19.83
2023-03-18T22:52:31.203Z,18.42
2023-03-18T22:55:24.003Z,19.45
2023-03-18T22:58:07.182Z,18.77
2023-03-18T23:00:50.243Z,19.77
2023-03-18T23:03:35.283Z,20.75
2023-03-18T23:06:20.251Z,21.02
2023-03-18T23:09:02.792Z,20.77
2023-03-18T23:11:45.121Z,21.25
2023-03-18T23:14:28.506Z,21.77
2023-03-18T23:17:18.715Z,20.73
2023-03-18T23:20:01.323Z,20.08
2023-03-18T23:22:46.176Z,20.92
2023-03-18T23:25:29.095Z,20.50
2023-03-18T23:28:11.788Z,19.42
2023-03-18T23:30:55.248Z,18.67
2023-03-18T23:33:37.515Z,18.85
2023-03-18T23:36:20.052Z,17.80
2023-03-18T23:39:02.424Z,17.90
2023-03-18T23:41:46.112Z,18.08
2023-03-18T23:44:28.587Z,18.02
2023-03-18T23:47:12.323Z,18.45
2023-03-18T23:49:54.592Z,16.98
2023-03-18T23:52:37.723Z,16.67
2023-03-18T23:55:33.610Z,17.15
2023-03-18T23:58:22.590Z,16.88
